sensor_id;sensor_type;location;lat;lon;timestamp;pressure;altitude;pressure_sealevel;temperature;humidity
55277;BME280;41136;51.478;-2.610;2023-11-18T00:01:33;100723.35;;;11.49;100.00
55277;BME280;41136;51.478;-2.610;2023-11-18T00:03:59;100715.98;;;10.88;100.00
55277;BME280;41136;51.478;-2.610;2023-11-18T00:06:24;100702.35;;;11.91;100.00
55277;BME280;41136;51.478;-2.610;2023-11-18T00:08:49;100701.20;;;11.63;100.00
55277;BME280;41136;51.478;-2.610;2023-11-18T00:11:15;100698.56;;;11.67;100.00
55277;BME280;41136;51.478;-2.610;2023-11-18T00:13:40;100688.69;;;11.69;100.00
55277;BME280;41136;51.478;-2.610;2023-11-18T00:16:06;100682.28;;;11.54;100.00
55277;BME280;41136;51.478;-2.610;2023-11-18T00:18:31;100673.56;;;11.53;100.00
55277;BME280;41136;51.478;-2.610;2023-11-18T00:20:56;100676.42;;;11.61;100.00
55277;BME280;41136;51.478;-2.610;2023-11-18T00:23:21;100665.77;;;12.03;100.00
55277;BME280;41136;51.478;-2.610;2023-11-18T00:25:47;100668.90;;;11.84;100.00
55277;BME280;41136;51.478;-2.610;2023-11-18T00:28:12;100656.67;;;11.62;100.00
55277;BME280;41136;51.478;-2.610;2023-11-18T00:30:38;100650.72;;;11.42;100.00
55277;BME280;41136;51.478;-2.610;2023-11-18T00:33:03;100661.30;;;11.95;100.00
55277;BME280;41136;51.478;-2.610;2023-11-18T00:35:28;100652.96;;;11.90;100.00
55277;BME280;41136;51.478;-2.610;2023-11-18T00:37:53;100645.17;;;11.81;100.00
55277;BME280;41136;51.478;-2.610;2023-11-18T00:40:19;100628.55;;;12.02;100.00
55277;BME280;41136;51.478;-2.610;2023-11-18T00:42:44;100622.81;;;12.14;100.00
55277;BME280;41136;51.478;-2.610;2023-11-18T00:45:10;100615.96;;;12.25;100.00
55277;BME280;41136;51.478;-2.610;2023-11-18T00:47:35;100605.67;;;12.19;100.00
55277;BME280;41136;51.478;-2.610;2023-11-18T00:50:00;100600.78;;;11.74;100.00
55277;BME280;41136;51.478;-2.610;2023-11-18T00:52:26;100585.17;;;12.46;100.00
55277;BME280;41136;51.478;-2.610;2023-11-18T00:59:21;100572.23;;;12.89;100.00
55277;BME280;41136;51.478;-2.610;2023-11-18T01:01:46;100569.87;;;12.64;100.00
55277;BME280;41136;51.478;-2.610;2023-11-18T01:04:11;100564.21;;;12.91;100.00
55277;BME280;41136;51.478;-2.610;2023-11-18T01:06:37;100554.15;;;12.13;100.00
55277;BME280;41136;51.478;-2.610;2023-11-18T01:09:02;100556.57;;;12.81;100.00
55277;BME280;41136;51.478;-2.610;2023-11-18T01:11:27;100550.47;;;12.73;100.00
55277;BME280;41136;51.478;-2.610;2023-11-18T01:13:53;100547.10;;;12.85;100.00
55277;BME280;41136;51.478;-2.610;2023-11-18T01:16:18;100543.39;;;12.94;100.00
55277;BME280;41136;51.478;-2.610;2023-11-18T01:18:43;100541.23;;;12.93;100.00
55277;BME280;41136;51.478;-2.610;2023-11-18T01:21:09;100542.19;;;13.17;100.00
55277;BME280;41136;51.478;-2.610;2023-11-18T01:23:34;100532.71;;;13.05;100.00
55277;BME280;41136;51.478;-2.610;2023-11-18T01:25:59;100523.69;;;12.54;100.00
55277;BME280;41136;51.478;-2.610;2023-11-18T01:28:25;100518.76;;;12.66;100.00
55277;BME280;41136;51.478;-2.610;2023-11-18T01:30:50;100514.48;;;12.63;100.00
55277;BME280;41136;51.478;-2.610;2023-11-18T01:33:15;100513.69;;;12.81;100.00
55277;BME280;41136;51.478;-2.610;2023-11-18T01:35:40;100523.47;;;12.93;100.00
55277;BME280;41136;51.478;-2.610;2023-11-18T01:38:06;100515.69;;;12.89;100.00
55277;BME280;41136;51.478;-2.610;2023-11-18T01:40:33;100515.42;;;12.49;100.00
55277;BME280;41136;51.478;-2.610;2023-11-18T01:42:56;100510.07;;;12.94;100.00
55277;BME280;41136;51.478;-2.610;2023-11-18T01:45:22;100496.40;;;12.99;100.00
55277;BME280;41136;51.478;-2.610;2023-11-18T01:47:47;100491.95;;;13.02;100.00
55277;BME280;41136;51.478;-2.610;2023-11-18T01:50:13;100485.71;;;12.36;100.00
55277;BME280;41136;51.478;-2.610;2023-11-18T01:52:38;100481.79;;;12.55;100.00
55277;BME280;41136;51.478;-2.610;2023-11-18T01:55:04;100474.67;;;12.56;100.00
55277;BME280;41136;51.478;-2.610;2023-11-18T01:57:28;100470.22;;;12.69;100.00
55277;BME280;41136;51.478;-2.610;2023-11-18T01:59:54;100462.32;;;12.58;100.00
55277;BME280;41136;51.478;-2.610;2023-11-18T02:02:19;100459.60;;;12.86;100.00
55277;BME280;41136;51.478;-2.610;2023-11-18T02:04:44;100452.87;;;12.95;100.00
55277;BME280;41136;51.478;-2.610;2023-11-18T02:07:10;100448.88;;;13.16;100.00
55277;BME280;41136;51.478;-2.610;2023-11-18T02:09:35;100447.63;;;13.01;100.00
55277;BME280;41136;51.478;-2.610;2023-11-18T02:12:07;100439.12;;;13.08;100.00
55277;BME280;41136;51.478;-2.610;2023-11-18T02:14:27;100438.18;;;13.17;100.00
55277;BME280;41136;51.478;-2.610;2023-11-18T02:16:52;100433.76;;;12.93;100.00
55277;BME280;41136;51.478;-2.610;2023-11-18T02:19:20;100429.17;;;13.31;100.00
55277;BME280;41136;51.478;-2.610;2023-11-18T02:21:42;100424.11;;;13.20;100.00
55277;BME280;41136;51.478;-2.610;2023-11-18T02:24:07;100428.49;;;13.23;100.00
55277;BME280;41136;51.478;-2.610;2023-11-18T02:26:32;100422.74;;;13.21;100.00
55277;BME280;41136;51.478;-2.610;2023-11-18T02:28:57;100411.15;;;13.09;100.00
55277;BME280;41136;51.478;-2.610;2023-11-18T02:31:29;100401.80;;;12.83;100.00
55277;BME280;41136;51.478;-2.610;2023-11-18T02:33:54;100386.20;;;12.59;100.00
55277;BME280;41136;51.478;-2.610;2023-11-18T02:36:16;100383.63;;;12.96;100.00
55277;BME280;41136;51.478;-2.610;2023-11-18T02:38:44;100382.13;;;12.71;100.00
55277;BME280;41136;51.478;-2.610;2023-11-18T02:41:10;100379.32;;;12.69;100.00
55277;BME280;41136;51.478;-2.610;2023-11-18T02:43:29;100372.02;;;12.30;100.00
55277;BME280;41136;51.478;-2.610;2023-11-18T02:45:57;100365.00;;;12.65;100.00
55277;BME280;41136;51.478;-2.610;2023-11-18T02:48:20;100364.45;;;12.68;100.00
55277;BME280;41136;51.478;-2.610;2023-11-18T02:50:45;100359.88;;;12.64;100.00
55277;BME280;41136;51.478;-2.610;2023-11-18T02:53:11;100355.77;;;13.52;100.00
55277;BME280;41136;51.478;-2.610;2023-11-18T02:55:36;100337.17;;;13.21;100.00
55277;BME280;41136;51.478;-2.610;2023-11-18T02:58:02;100328.61;;;12.55;100.00
55277;BME280;41136;51.478;-2.610;2023-11-18T03:00:27;100302.07;;;13.16;100.00
55277;BME280;41136;51.478;-2.610;2023-11-18T03:02:52;100304.15;;;13.33;100.00
55277;BME280;41136;51.478;-2.610;2023-11-18T03:05:18;100300.93;;;12.58;100.00
55277;BME280;41136;51.478;-2.610;2023-11-18T03:07:43;100310.97;;;12.12;100.00
55277;BME280;41136;51.478;-2.610;2023-11-18T03:10:08;100303.73;;;12.52;100.00
55277;BME280;41136;51.478;-2.610;2023-11-18T03:12:33;100293.88;;;13.04;100.00
55277;BME280;41136;51.478;-2.610;2023-11-18T03:14:59;100283.84;;;13.22;100.00
55277;BME280;41136;51.478;-2.610;2023-11-18T03:17:24;100269.78;;;13.03;100.00
55277;BME280;41136;51.478;-2.610;2023-11-18T03:19:49;100264.48;;;13.11;100.00
55277;BME280;41136;51.478;-2.610;2023-11-18T03:22:15;100259.77;;;12.68;100.00
55277;BME280;41136;51.478;-2.610;2023-11-18T03:24:40;100250.66;;;12.73;100.00
55277;BME280;41136;51.478;-2.610;2023-11-18T03:27:05;100239.32;;;12.82;100.00
55277;BME280;41136;51.478;-2.610;2023-11-18T03:29:31;100231.74;;;12.98;100.00
55277;BME280;41136;51.478;-2.610;2023-11-18T03:31:56;100215.00;;;13.02;100.00
55277;BME280;41136;51.478;-2.610;2023-11-18T03:34:21;100204.31;;;13.24;100.00
55277;BME280;41136;51.478;-2.610;2023-11-18T03:36:47;100205.50;;;13.09;100.00
55277;BME280;41136;51.478;-2.610;2023-11-18T03:39:12;100211.80;;;13.08;100.00
55277;BME280;41136;51.478;-2.610;2023-11-18T03:41:37;100212.67;;;13.41;100.00
55277;BME280;41136;51.478;-2.610;2023-11-18T03:44:03;100214.81;;;12.97;100.00
55277;BME280;41136;51.478;-2.610;2023-11-18T03:46:28;100215.86;;;13.48;100.00
55277;BME280;41136;51.478;-2.610;2023-11-18T03:48:53;100208.00;;;13.01;100.00
55277;BME280;41136;51.478;-2.610;2023-11-18T03:51:19;100204.33;;;12.75;100.00
55277;BME280;41136;51.478;-2.610;2023-11-18T03:53:44;100187.05;;;12.94;100.00
55277;BME280;41136;51.478;-2.610;2023-11-18T03:56:09;100175.88;;;13.53;100.00
55277;BME280;41136;51.478;-2.610;2023-11-18T03:58:34;100173.01;;;13.46;100.00
55277;BME280;41136;51.478;-2.610;2023-11-18T04:01:00;100177.06;;;13.85;100.00
55277;BME280;41136;51.478;-2.610;2023-11-18T04:03:25;100174.29;;;13.88;100.00
55277;BME280;41136;51.478;-2.610;2023-11-18T04:05:50;100171.86;;;14.09;100.00
55277;BME280;41136;51.478;-2.610;2023-11-18T04:08:16;100177.45;;;13.00;100.00
55277;BME280;41136;51.478;-2.610;2023-11-18T04:10:41;100172.88;;;13.87;100.00
55277;BME280;41136;51.478;-2.610;2023-11-18T04:13:06;100166.40;;;13.62;100.00
55277;BME280;41136;51.478;-2.610;2023-11-18T04:15:32;100165.80;;;13.64;100.00
55277;BME280;41136;51.478;-2.610;2023-11-18T04:17:57;100163.18;;;13.82;100.00
55277;BME280;41136;51.478;-2.610;2023-11-18T04:20:22;100151.12;;;13.58;100.00
55277;BME280;41136;51.478;-2.610;2023-11-18T04:22:48;100139.32;;;12.99;100.00
55277;BME280;41136;51.478;-2.610;2023-11-18T04:25:13;100135.15;;;12.99;100.00
55277;BME280;41136;51.478;-2.610;2023-11-18T04:27:38;100130.16;;;14.06;100.00
55277;BME280;41136;51.478;-2.610;2023-11-18T04:30:05;100123.80;;;13.15;100.00
55277;BME280;41136;51.478;-2.610;2023-11-18T04:32:29;100120.69;;;13.72;100.00
55277;BME280;41136;51.478;-2.610;2023-11-18T04:34:54;100112.23;;;14.30;100.00
55277;BME280;41136;51.478;-2.610;2023-11-18T04:37:19;100105.64;;;14.21;100.00
55277;BME280;41136;51.478;-2.610;2023-11-18T04:39:45;100103.37;;;13.77;100.00
55277;BME280;41136;51.478;-2.610;2023-11-18T04:42:10;100090.45;;;13.77;100.00
55277;BME280;41136;51.478;-2.610;2023-11-18T04:44:35;100080.57;;;13.88;100.00
55277;BME280;41136;51.478;-2.610;2023-11-18T04:47:01;100066.49;;;13.82;100.00
55277;BME280;41136;51.478;-2.610;2023-11-18T04:49:26;100071.08;;;14.35;100.00
55277;BME280;41136;51.478;-2.610;2023-11-18T04:51:51;100059.78;;;14.40;100.00
55277;BME280;41136;51.478;-2.610;2023-11-18T04:54:16;100067.10;;;14.57;100.00
55277;BME280;41136;51.478;-2.610;2023-11-18T04:56:42;100055.94;;;13.56;100.00
55277;BME280;41136;51.478;-2.610;2023-11-18T04:59:07;100055.69;;;14.35;100.00
55277;BME280;41136;51.478;-2.610;2023-11-18T05:01:32;100056.13;;;14.14;100.00
55277;BME280;41136;51.478;-2.610;2023-11-18T05:03:59;100054.91;;;13.77;100.00
55277;BME280;41136;51.478;-2.610;2023-11-18T05:06:23;100056.76;;;14.14;100.00
55277;BME280;41136;51.478;-2.610;2023-11-18T05:08:48;100046.60;;;14.69;100.00
55277;BME280;41136;51.478;-2.610;2023-11-18T05:11:13;100045.41;;;14.98;100.00
55277;BME280;41136;51.478;-2.610;2023-11-18T05:13:39;100047.52;;;14.16;100.00
55277;BME280;41136;51.478;-2.610;2023-11-18T05:18:29;100045.25;;;14.18;100.00
55277;BME280;41136;51.478;-2.610;2023-11-18T05:20:55;100058.17;;;13.83;100.00
55277;BME280;41136;51.478;-2.610;2023-11-18T05:23:20;100049.54;;;14.57;100.00
55277;BME280;41136;51.478;-2.610;2023-11-18T05:25:45;100054.43;;;14.69;100.00
55277;BME280;41136;51.478;-2.610;2023-11-18T05:28:10;100054.86;;;14.35;100.00
55277;BME280;41136;51.478;-2.610;2023-11-18T05:30:36;100049.62;;;14.25;100.00
55277;BME280;41136;51.478;-2.610;2023-11-18T05:33:02;100048.78;;;14.68;100.00
55277;BME280;41136;51.478;-2.610;2023-11-18T05:35:26;100052.84;;;14.80;100.00
55277;BME280;41136;51.478;-2.610;2023-11-18T05:37:52;100056.77;;;14.87;100.00
55277;BME280;41136;51.478;-2.610;2023-11-18T05:40:17;100056.84;;;14.80;100.00
55277;BME280;41136;51.478;-2.610;2023-11-18T05:42:42;100052.18;;;15.01;100.00
55277;BME280;41136;51.478;-2.610;2023-11-18T05:45:08;100055.23;;;14.92;100.00
55277;BME280;41136;51.478;-2.610;2023-11-18T05:47:33;100048.49;;;15.22;100.00
55277;BME280;41136;51.478;-2.610;2023-11-18T05:52:04;100032.66;;;15.28;100.00
55277;BME280;41136;51.478;-2.610;2023-11-18T05:54:29;100049.05;;;14.93;100.00
55277;BME280;41136;51.478;-2.610;2023-11-18T05:56:54;100055.70;;;14.75;100.00
55277;BME280;41136;51.478;-2.610;2023-11-18T05:59:20;100045.06;;;15.03;100.00
55277;BME280;41136;51.478;-2.610;2023-11-18T06:01:45;100041.03;;;15.08;100.00
55277;BME280;41136;51.478;-2.610;2023-11-18T06:04:10;100035.11;;;15.16;100.00
55277;BME280;41136;51.478;-2.610;2023-11-18T06:06:35;100027.73;;;14.86;100.00
55277;BME280;41136;51.478;-2.610;2023-11-18T06:09:01;100020.67;;;15.04;100.00
55277;BME280;41136;51.478;-2.610;2023-11-18T06:11:27;100009.91;;;15.41;100.00
55277;BME280;41136;51.478;-2.610;2023-11-18T06:13:52;99999.41;;;15.46;100.00
55277;BME280;41136;51.478;-2.610;2023-11-18T06:16:18;99993.10;;;15.22;100.00
55277;BME280;41136;51.478;-2.610;2023-11-18T06:18:42;99985.05;;;14.94;100.00
55277;BME280;41136;51.478;-2.610;2023-11-18T06:21:07;99981.82;;;14.94;100.00
55277;BME280;41136;51.478;-2.610;2023-11-18T06:23:32;99970.72;;;14.98;100.00
55277;BME280;41136;51.478;-2.610;2023-11-18T06:25:57;99971.16;;;15.20;100.00
55277;BME280;41136;51.478;-2.610;2023-11-18T06:28:23;99973.41;;;15.35;100.00
55277;BME280;41136;51.478;-2.610;2023-11-18T06:30:48;99977.59;;;15.06;100.00
55277;BME280;41136;51.478;-2.610;2023-11-18T06:33:13;99978.32;;;15.08;100.00
55277;BME280;41136;51.478;-2.610;2023-11-18T06:35:38;99978.69;;;15.43;100.00
55277;BME280;41136;51.478;-2.610;2023-11-18T06:38:04;99982.30;;;15.55;100.00
55277;BME280;41136;51.478;-2.610;2023-11-18T06:40:29;99980.76;;;15.29;100.00
55277;BME280;41136;51.478;-2.610;2023-11-18T06:42:54;99973.79;;;15.47;100.00
55277;BME280;41136;51.478;-2.610;2023-11-18T06:45:20;99971.59;;;15.14;100.00
55277;BME280;41136;51.478;-2.610;2023-11-18T06:47:45;99974.52;;;14.70;100.00
55277;BME280;41136;51.478;-2.610;2023-11-18T06:50:10;99969.28;;;15.37;100.00
55277;BME280;41136;51.478;-2.610;2023-11-18T06:52:37;99976.08;;;15.01;100.00
55277;BME280;41136;51.478;-2.610;2023-11-18T06:55:01;99961.55;;;15.54;100.00
55277;BME280;41136;51.478;-2.610;2023-11-18T06:57:26;99963.86;;;15.04;100.00
55277;BME280;41136;51.478;-2.610;2023-11-18T06:59:51;99958.19;;;15.64;100.00
55277;BME280;41136;51.478;-2.610;2023-11-18T07:02:16;99972.55;;;15.30;100.00
55277;BME280;41136;51.478;-2.610;2023-11-18T07:04:42;99966.17;;;15.30;100.00
55277;BME280;41136;51.478;-2.610;2023-11-18T07:07:07;99958.79;;;15.28;100.00
55277;BME280;41136;51.478;-2.610;2023-11-18T07:09:32;99961.43;;;15.03;100.00
55277;BME280;41136;51.478;-2.610;2023-11-18T07:11:57;99956.26;;;15.66;100.00
55277;BME280;41136;51.478;-2.610;2023-11-18T07:14:23;99954.71;;;14.91;100.00
55277;BME280;41136;51.478;-2.610;2023-11-18T07:16:48;99956.59;;;15.12;100.00
55277;BME280;41136;51.478;-2.610;2023-11-18T07:19:13;99953.66;;;15.41;100.00
55277;BME280;41136;51.478;-2.610;2023-11-18T07:21:40;99966.96;;;15.12;100.00
55277;BME280;41136;51.478;-2.610;2023-11-18T07:24:04;99958.82;;;15.91;100.00
55277;BME280;41136;51.478;-2.610;2023-11-18T07:26:29;99953.48;;;14.69;100.00
55277;BME280;41136;51.478;-2.610;2023-11-18T07:28:54;99952.85;;;15.18;100.00
55277;BME280;41136;51.478;-2.610;2023-11-18T07:31:19;99949.58;;;15.71;100.00
55277;BME280;41136;51.478;-2.610;2023-11-18T07:33:45;99947.25;;;15.14;100.00
55277;BME280;41136;51.478;-2.610;2023-11-18T07:36:10;99947.93;;;15.60;100.00
55277;BME280;41136;51.478;-2.610;2023-11-18T07:38:35;99955.76;;;15.32;100.00
55277;BME280;41136;51.478;-2.610;2023-11-18T07:41:00;99953.03;;;14.64;100.00
55277;BME280;41136;51.478;-2.610;2023-11-18T07:43:26;99951.66;;;15.64;100.00
55277;BME280;41136;51.478;-2.610;2023-11-18T07:45:51;99951.94;;;15.94;100.00
55277;BME280;41136;51.478;-2.610;2023-11-18T07:48:16;99946.23;;;15.91;100.00
55277;BME280;41136;51.478;-2.610;2023-11-18T07:50:41;99949.53;;;15.96;100.00
55277;BME280;41136;51.478;-2.610;2023-11-18T07:53:07;99956.36;;;15.32;100.00
55277;BME280;41136;51.478;-2.610;2023-11-18T07:55:32;99955.80;;;15.71;100.00
55277;BME280;41136;51.478;-2.610;2023-11-18T07:57:57;99964.54;;;15.94;100.00
55277;BME280;41136;51.478;-2.610;2023-11-18T08:00:22;99955.68;;;15.52;100.00
55277;BME280;41136;51.478;-2.610;2023-11-18T08:02:47;99970.10;;;15.23;100.00
55277;BME280;41136;51.478;-2.610;2023-11-18T08:05:13;99969.37;;;15.16;100.00
55277;BME280;41136;51.478;-2.610;2023-11-18T08:07:38;99967.17;;;15.58;100.00
55277;BME280;41136;51.478;-2.610;2023-11-18T08:10:04;99972.78;;;15.01;100.00
55277;BME280;41136;51.478;-2.610;2023-11-18T08:12:28;99971.19;;;15.28;100.00
55277;BME280;41136;51.478;-2.610;2023-11-18T08:14:54;99964.30;;;15.62;100.00
55277;BME280;41136;51.478;-2.610;2023-11-18T08:17:19;99967.21;;;14.76;100.00
55277;BME280;41136;51.478;-2.610;2023-11-18T08:19:44;99966.98;;;15.23;100.00
55277;BME280;41136;51.478;-2.610;2023-11-18T08:22:09;99962.66;;;15.30;100.00
55277;BME280;41136;51.478;-2.610;2023-11-18T08:24:35;99957.19;;;15.25;100.00
55277;BME280;41136;51.478;-2.610;2023-11-18T08:27:00;99956.19;;;15.33;100.00
55277;BME280;41136;51.478;-2.610;2023-11-18T08:29:25;99975.20;;;15.00;100.00
55277;BME280;41136;51.478;-2.610;2023-11-18T08:31:50;99957.74;;;15.80;100.00
55277;BME280;41136;51.478;-2.610;2023-11-18T08:34:16;99945.10;;;15.43;100.00
55277;BME280;41136;51.478;-2.610;2023-11-18T08:36:41;99946.80;;;15.44;100.00
55277;BME280;41136;51.478;-2.610;2023-11-18T08:39:06;99941.05;;;16.06;100.00
55277;BME280;41136;51.478;-2.610;2023-11-18T08:41:31;99944.61;;;15.67;100.00
55277;BME280;41136;51.478;-2.610;2023-11-18T08:43:57;99940.09;;;15.80;100.00
55277;BME280;41136;51.478;-2.610;2023-11-18T08:46:22;99971.46;;;15.48;100.00
55277;BME280;41136;51.478;-2.610;2023-11-18T08:48:47;99970.43;;;15.56;100.00
55277;BME280;41136;51.478;-2.610;2023-11-18T08:51:12;99963.91;;;14.88;100.00
55277;BME280;41136;51.478;-2.610;2023-11-18T08:53:38;99960.49;;;15.60;100.00
55277;BME280;41136;51.478;-2.610;2023-11-18T08:56:03;99959.20;;;15.41;100.00
55277;BME280;41136;51.478;-2.610;2023-11-18T08:58:29;99968.62;;;15.45;100.00
55277;BME280;41136;51.478;-2.610;2023-11-18T09:00:57;99964.75;;;14.96;100.00
55277;BME280;41136;51.478;-2.610;2023-11-18T09:03:21;99952.72;;;15.28;100.00
55277;BME280;41136;51.478;-2.610;2023-11-18T09:05:45;99957.09;;;15.68;100.00
55277;BME280;41136;51.478;-2.610;2023-11-18T09:08:09;99953.41;;;15.94;100.00
55277;BME280;41136;51.478;-2.610;2023-11-18T09:10:35;99952.54;;;15.61;100.00
55277;BME280;41136;51.478;-2.610;2023-11-18T09:13:00;99942.77;;;16.27;100.00
55277;BME280;41136;51.478;-2.610;2023-11-18T09:15:25;99935.95;;;15.94;100.00
55277;BME280;41136;51.478;-2.610;2023-11-18T09:17:51;99945.91;;;15.35;100.00
55277;BME280;41136;51.478;-2.610;2023-11-18T09:20:16;99960.39;;;16.12;100.00
55277;BME280;41136;51.478;-2.610;2023-11-18T09:22:41;99964.48;;;16.06;100.00
55277;BME280;41136;51.478;-2.610;2023-11-18T09:25:07;99974.04;;;16.00;100.00
55277;BME280;41136;51.478;-2.610;2023-11-18T09:27:31;99986.34;;;16.40;100.00
55277;BME280;41136;51.478;-2.610;2023-11-18T09:29:57;99982.61;;;15.92;100.00
55277;BME280;41136;51.478;-2.610;2023-11-18T09:32:23;99983.67;;;16.05;100.00
55277;BME280;41136;51.478;-2.610;2023-11-18T09:34:47;99973.43;;;15.99;100.00
55277;BME280;41136;51.478;-2.610;2023-11-18T09:37:12;99983.41;;;15.73;100.00
55277;BME280;41136;51.478;-2.610;2023-11-18T09:39:37;99986.23;;;15.22;100.00
55277;BME280;41136;51.478;-2.610;2023-11-18T09:42:05;99994.22;;;14.35;100.00
55277;BME280;41136;51.478;-2.610;2023-11-18T09:44:28;99984.22;;;14.73;100.00
55277;BME280;41136;51.478;-2.610;2023-11-18T09:46:57;99991.43;;;14.35;100.00
55277;BME280;41136;51.478;-2.610;2023-11-18T09:49:25;99999.88;;;13.67;100.00
55277;BME280;41136;51.478;-2.610;2023-11-18T09:51:45;99985.98;;;14.15;100.00
55277;BME280;41136;51.478;-2.610;2023-11-18T09:54:15;99988.83;;;14.62;100.00
55277;BME280;41136;51.478;-2.610;2023-11-18T09:56:41;100006.88;;;14.27;100.00
55277;BME280;41136;51.478;-2.610;2023-11-18T09:59:05;100015.48;;;14.29;100.00
55277;BME280;41136;51.478;-2.610;2023-11-18T10:01:26;100025.35;;;14.55;100.00
55277;BME280;41136;51.478;-2.610;2023-11-18T10:03:50;100032.80;;;14.03;100.00
55277;BME280;41136;51.478;-2.610;2023-11-18T10:06:16;100020.35;;;14.20;100.00
55277;BME280;41136;51.478;-2.610;2023-11-18T10:08:41;100020.63;;;14.19;100.00
55277;BME280;41136;51.478;-2.610;2023-11-18T10:11:06;100029.35;;;13.86;100.00
55277;BME280;41136;51.478;-2.610;2023-11-18T10:13:32;100024.11;;;14.05;100.00
55277;BME280;41136;51.478;-2.610;2023-11-18T10:15:56;100021.15;;;14.27;100.00
55277;BME280;41136;51.478;-2.610;2023-11-18T10:18:22;100011.70;;;14.58;100.00
55277;BME280;41136;51.478;-2.610;2023-11-18T10:20:48;100020.32;;;14.12;100.00
55277;BME280;41136;51.478;-2.610;2023-11-18T10:23:14;100021.98;;;14.66;100.00
55277;BME280;41136;51.478;-2.610;2023-11-18T10:25:37;100027.35;;;14.54;100.00
55277;BME280;41136;51.478;-2.610;2023-11-18T10:28:03;100028.00;;;14.51;100.00
55277;BME280;41136;51.478;-2.610;2023-11-18T10:30:28;100021.27;;;15.10;100.00
55277;BME280;41136;51.478;-2.610;2023-11-18T10:32:57;100007.65;;;14.77;100.00
55277;BME280;41136;51.478;-2.610;2023-11-18T10:35:18;100005.45;;;14.62;100.00
55277;BME280;41136;51.478;-2.610;2023-11-18T10:37:43;100006.38;;;14.82;100.00
55277;BME280;41136;51.478;-2.610;2023-11-18T10:40:10;100005.94;;;15.18;100.00
55277;BME280;41136;51.478;-2.610;2023-11-18T10:42:34;100000.34;;;14.99;100.00
55277;BME280;41136;51.478;-2.610;2023-11-18T10:44:59;99990.49;;;15.05;100.00
55277;BME280;41136;51.478;-2.610;2023-11-18T10:47:25;99994.77;;;15.84;100.00
55277;BME280;41136;51.478;-2.610;2023-11-18T10:49:51;100006.52;;;15.37;100.00
55277;BME280;41136;51.478;-2.610;2023-11-18T10:52:15;100010.93;;;15.01;100.00
55277;BME280;41136;51.478;-2.610;2023-11-18T10:54:49;100020.32;;;15.61;100.00
55277;BME280;41136;51.478;-2.610;2023-11-18T10:57:05;100022.79;;;15.95;100.00
55277;BME280;41136;51.478;-2.610;2023-11-18T10:59:31;100007.28;;;16.53;100.00
55277;BME280;41136;51.478;-2.610;2023-11-18T11:01:56;100005.26;;;15.04;100.00
55277;BME280;41136;51.478;-2.610;2023-11-18T11:04:21;100009.11;;;15.39;100.00
55277;BME280;41136;51.478;-2.610;2023-11-18T11:06:49;100005.79;;;15.47;100.00
55277;BME280;41136;51.478;-2.610;2023-11-18T11:09:12;100011.61;;;15.42;100.00
55277;BME280;41136;51.478;-2.610;2023-11-18T11:11:40;100004.66;;;15.33;100.00
55277;BME280;41136;51.478;-2.610;2023-11-18T11:14:03;99990.38;;;15.70;100.00
55277;BME280;41136;51.478;-2.610;2023-11-18T11:16:36;100004.63;;;15.30;100.00
55277;BME280;41136;51.478;-2.610;2023-11-18T11:18:55;99995.58;;;15.16;100.00
55277;BME280;41136;51.478;-2.610;2023-11-18T11:21:21;99981.95;;;15.62;100.00
55277;BME280;41136;51.478;-2.610;2023-11-18T11:23:50;99979.45;;;15.41;100.00
55277;BME280;41136;51.478;-2.610;2023-11-18T11:26:18;99989.10;;;15.61;100.00
55277;BME280;41136;51.478;-2.610;2023-11-18T11:28:40;99982.58;;;15.56;100.00
55277;BME280;41136;51.478;-2.610;2023-11-18T11:31:11;99974.72;;;15.03;100.00
55277;BME280;41136;51.478;-2.610;2023-11-18T11:33:31;99973.28;;;14.84;100.00
55277;BME280;41136;51.478;-2.610;2023-11-18T11:35:55;99981.56;;;15.19;100.00
55277;BME280;41136;51.478;-2.610;2023-11-18T11:38:16;99991.76;;;15.01;100.00
55277;BME280;41136;51.478;-2.610;2023-11-18T11:40:42;99978.29;;;15.57;100.00
55277;BME280;41136;51.478;-2.610;2023-11-18T11:43:08;99973.20;;;15.67;100.00
55277;BME280;41136;51.478;-2.610;2023-11-18T11:45:31;99985.18;;;15.44;100.00
55277;BME280;41136;51.478;-2.610;2023-11-18T11:47:59;99985.50;;;15.55;100.00
55277;BME280;41136;51.478;-2.610;2023-11-18T11:50:27;99982.13;;;14.97;100.00
55277;BME280;41136;51.478;-2.610;2023-11-18T11:52:53;99974.09;;;15.15;100.00
55277;BME280;41136;51.478;-2.610;2023-11-18T11:55:18;99976.54;;;15.34;100.00
55277;BME280;41136;51.478;-2.610;2023-11-18T11:57:38;99982.95;;;14.66;100.00
55277;BME280;41136;51.478;-2.610;2023-11-18T12:00:04;99983.76;;;15.22;100.00
55277;BME280;41136;51.478;-2.610;2023-11-18T12:02:28;99995.82;;;15.29;100.00
55277;BME280;41136;51.478;-2.610;2023-11-18T12:04:55;100004.62;;;16.06;100.00
55277;BME280;41136;51.478;-2.610;2023-11-18T12:07:19;100015.25;;;15.32;100.00
55277;BME280;41136;51.478;-2.610;2023-11-18T12:09:46;100004.40;;;15.72;100.00
55277;BME280;41136;51.478;-2.610;2023-11-18T12:12:17;99992.33;;;15.90;100.00
55277;BME280;41136;51.478;-2.610;2023-11-18T12:17:03;99980.64;;;16.49;100.00
55277;BME280;41136;51.478;-2.610;2023-11-18T12:19:30;99978.96;;;16.09;100.00
55277;BME280;41136;51.478;-2.610;2023-11-18T12:21:55;99979.72;;;15.62;100.00
55277;BME280;41136;51.478;-2.610;2023-11-18T12:24:16;99971.84;;;15.66;100.00
55277;BME280;41136;51.478;-2.610;2023-11-18T12:26:41;99965.00;;;16.09;100.00
55277;BME280;41136;51.478;-2.610;2023-11-18T12:31:39;99953.48;;;16.96;100.00
55277;BME280;41136;51.478;-2.610;2023-11-18T12:34:01;99966.94;;;16.71;100.00
55277;BME280;41136;51.478;-2.610;2023-11-18T12:36:33;99970.90;;;16.75;100.00